Archived

This topic is now archived and is closed to further replies.

haskell

Wrong Wx Depicted With Asa

Recommended Posts

METAR - KSLC 030639Z 36016KT 2SM -SN BR FEW008 BKN020 OVC037 M01/M03 A2976 RMK AO2 TWR VIS 3 CIG 013 NW RNWY P0000Spot view, sitting on ramp at KSLC - Tower view - KSLC -Very bizarre... log attached.

Share this post


Link to post
Share on other sites
Help AVSIM continue to serve you!
Please donate today!

Hi,What happened when you changed views again?Did the correct weather ever appear?Thanks,

Share this post


Link to post
Share on other sites
Hi,What happened when you changed views again?Did the correct weather ever appear?Thanks,
Hi Jim, When I switched back there would be snow for less than a second then back to clear. When I took off, about halfway down the runway it started snowing and the vis dropped. Then, on climbout, it got clear again. It's almost as though the region depicted for KSLC is tiny (like only within a few feet of the tower.) This happened to me the first day I used ASA. On a flight to Aspen I was above cloud, popped out to great vis and VFR, then popped into cloud (that didn't exist seconds ago) and snow, then clear until right above the threshold, then as I touched down snow and low viz. I also had insane wind shears at each pop. Thanks!Eddie

Share this post


Link to post
Share on other sites